Time;durP1;ratioP1;P1;durP2;ratioP2;P2;SDS_P1;SDS_P2;PMS_P1;PMS_P2;Temp;Humidity;BMP_temperature;BMP_pressure;BME280_temperature;BME280_humidity;BME280_pressure;Samples;Min_cycle;Max_cycle;Signal;HPM_P1;HPM_P2
2022/12/28 00:01:11;;;;;;;7.07;3.53;;;;;;;;;;5018017;28;20033;-63
2022/12/28 00:03:37;;;;;;;9.63;4.10;;;;;;;;;;5024010;28;20617;-64
2022/12/28 00:06:03;;;;;;;8.77;4.30;;;;;;;;;;5007640;28;20089;-64
2022/12/28 00:08:29;;;;;;;9.85;4.10;;;;;;;;;;5023294;28;20500;-64
2022/12/28 00:11:25;;;;;;;10.80;4.28;;;;;;;;;;5025544;28;20040;-63
2022/12/28 00:13:50;;;;;;;9.98;4.25;;;;;;;;;;5005936;28;20045;-64
2022/12/28 00:16:30;;;;;;;10.35;4.20;;;;;;;;;;5027252;28;20033;-63
2022/12/28 00:18:57;;;;;;;10.68;4.50;;;;;;;;;;5021083;28;20061;-63
2022/12/28 00:21:23;;;;;;;9.23;4.50;;;;;;;;;;5022570;28;20040;-63
2022/12/28 00:23:54;;;;;;;13.23;4.68;;;;;;;;;;5031334;28;20021;-67
2022/12/28 00:26:19;;;;;;;14.63;5.15;;;;;;;;;;5027704;28;20037;-64
2022/12/28 00:28:46;;;;;;;14.75;5.55;;;;;;;;;;5034269;28;20060;-63
2022/12/28 00:31:12;;;;;;;10.73;4.60;;;;;;;;;;5008042;28;20046;-63
2022/12/28 00:33:38;;;;;;;12.07;5.10;;;;;;;;;;5026898;28;20033;-64
2022/12/28 00:36:04;;;;;;;7.75;3.90;;;;;;;;;;5021467;28;20025;-63
2022/12/28 00:38:30;;;;;;;10.27;4.72;;;;;;;;;;5030273;28;20053;-64
2022/12/28 00:40:59;;;;;;;10.88;4.15;;;;;;;;;;5032180;28;20549;-63
2022/12/28 00:43:26;;;;;;;7.88;4.03;;;;;;;;;;5036034;28;20510;-63
2022/12/28 00:45:51;;;;;;;10.82;4.30;;;;;;;;;;5029990;28;21594;-63
2022/12/28 00:48:16;;;;;;;6.63;3.70;;;;;;;;;;5026682;28;20037;-66
2022/12/28 00:50:43;;;;;;;8.00;3.90;;;;;;;;;;5023075;28;20061;-64
2022/12/28 00:53:09;;;;;;;10.85;4.07;;;;;;;;;;5019555;28;20038;-65
2022/12/28 00:55:35;;;;;;;9.38;3.45;;;;;;;;;;5026895;28;20412;-63
2022/12/28 00:58:01;;;;;;;8.32;3.88;;;;;;;;;;5027858;28;20045;-64
2022/12/28 01:00:28;;;;;;;10.02;3.55;;;;;;;;;;5024339;28;20045;-65
2022/12/28 01:02:53;;;;;;;7.88;3.58;;;;;;;;;;5022734;28;20025;-64
2022/12/28 01:05:19;;;;;;;5.55;3.72;;;;;;;;;;5029600;28;20528;-65
2022/12/28 01:07:45;;;;;;;7.88;4.20;;;;;;;;;;5028275;28;20037;-66
2022/12/28 01:10:11;;;;;;;13.00;3.83;;;;;;;;;;5026191;28;20041;-64
2022/12/28 01:12:36;;;;;;;14.80;4.50;;;;;;;;;;5026868;28;20033;-64
2022/12/28 01:15:03;;;;;;;8.55;3.90;;;;;;;;;;5025297;28;20038;-66
2022/12/28 01:17:28;;;;;;;8.07;4.13;;;;;;;;;;5006507;28;20038;-65
2022/12/28 01:19:54;;;;;;;8.13;4.28;;;;;;;;;;5024598;28;20072;-66
2022/12/28 01:22:19;;;;;;;10.45;4.38;;;;;;;;;;5026228;28;20065;-64
2022/12/28 01:24:45;;;;;;;10.80;3.97;;;;;;;;;;5027109;28;20041;-64
2022/12/28 01:27:10;;;;;;;9.23;3.90;;;;;;;;;;5025098;28;20025;-63
2022/12/28 01:29:36;;;;;;;7.32;3.80;;;;;;;;;;5026657;28;20522;-63
2022/12/28 01:32:01;;;;;;;11.85;4.50;;;;;;;;;;5023943;28;20041;-63
2022/12/28 01:34:26;;;;;;;8.48;4.53;;;;;;;;;;5023771;28;20079;-64
2022/12/28 01:36:52;;;;;;;7.63;4.30;;;;;;;;;;5025345;28;20049;-64
2022/12/28 01:39:18;;;;;;;8.10;4.03;;;;;;;;;;5024790;28;20030;-64
2022/12/28 01:41:43;;;;;;;8.98;3.75;;;;;;;;;;5026125;28;20021;-65
2022/12/28 01:44:09;;;;;;;9.57;4.65;;;;;;;;;;5006325;28;20103;-65
2022/12/28 01:46:54;;;;;;;8.65;4.22;;;;;;;;;;5026218;28;20075;-65
2022/12/28 01:50:12;;;;;;;8.02;4.40;;;;;;;;;;5020917;28;20510;-65
2022/12/28 01:52:43;;;;;;;10.45;4.50;;;;;;;;;;4993389;28;20045;-64
2022/12/28 01:55:26;;;;;;;9.40;5.03;;;;;;;;;;5026388;28;20099;-65
2022/12/28 01:57:57;;;;;;;13.13;4.25;;;;;;;;;;5028179;28;20105;-63
2022/12/28 02:00:23;;;;;;;8.68;4.20;;;;;;;;;;5024254;28;20030;-63
2022/12/28 02:02:55;;;;;;;11.02;4.25;;;;;;;;;;5021519;28;20033;-64
2022/12/28 02:05:25;;;;;;;6.57;4.57;;;;;;;;;;5025142;28;20464;-63
2022/12/28 02:08:14;;;;;;;9.80;4.88;;;;;;;;;;5026273;28;20125;-63
2022/12/28 02:10:40;;;;;;;6.97;4.25;;;;;;;;;;5006710;28;20508;-65
2022/12/28 02:13:06;;;;;;;9.45;4.28;;;;;;;;;;5005576;28;20092;-64
2022/12/28 02:15:32;;;;;;;11.50;4.13;;;;;;;;;;5005764;28;20069;-66
2022/12/28 02:17:58;;;;;;;5.85;3.80;;;;;;;;;;5023070;28;20029;-63
2022/12/28 02:20:29;;;;;;;13.43;5.10;;;;;;;;;;5020840;28;20049;-64
2022/12/28 02:23:37;;;;;;;10.63;4.43;;;;;;;;;;5027151;28;20041;-64
2022/12/28 02:26:08;;;;;;;8.80;4.60;;;;;;;;;;5028513;28;20041;-64
2022/12/28 02:29:13;;;;;;;10.68;4.55;;;;;;;;;;5010829;28;20070;-63
2022/12/28 02:32:13;;;;;;;8.05;4.45;;;;;;;;;;5027069;28;20037;-64
2022/12/28 02:34:58;;;;;;;13.73;4.78;;;;;;;;;;5028825;28;20044;-64
2022/12/28 02:37:30;;;;;;;10.32;5.05;;;;;;;;;;5005984;28;20409;-63
2022/12/28 02:40:02;;;;;;;11.07;4.90;;;;;;;;;;5026567;28;20040;-63
2022/12/28 02:42:29;;;;;;;8.90;4.45;;;;;;;;;;5026866;28;20160;-63
2022/12/28 02:50:48;;;;;;;8.48;4.35;;;;;;;;;;5025019;28;22392;-63
2022/12/28 02:53:32;;;;;;;8.32;5.10;;;;;;;;;;5028745;28;20485;-63
2022/12/28 02:56:10;;;;;;;9.93;5.05;;;;;;;;;;5029843;28;20041;-63
2022/12/28 02:58:58;;;;;;;12.35;4.78;;;;;;;;;;5011720;28;20082;-63
2022/12/28 03:01:29;;;;;;;10.20;4.90;;;;;;;;;;5025295;28;20040;-63
2022/12/28 03:04:06;;;;;;;7.85;4.63;;;;;;;;;;5026335;28;20561;-64
2022/12/28 03:10:00;;;;;;;8.57;4.82;;;;;;;;;;5020397;28;20096;-64
2022/12/28 03:12:42;;;;;;;7.10;4.75;;;;;;;;;;5028079;28;20155;-64
2022/12/28 03:15:31;;;;;;;8.90;5.13;;;;;;;;;;5027765;28;20477;-63
2022/12/28 03:32:02;;;;;;;10.35;5.43;;;;;;;;;;5029436;28;20052;-64
2022/12/28 03:34:27;;;;;;;9.02;6.15;;;;;;;;;;5032816;28;20045;-64
2022/12/28 03:37:16;;;;;;;12.13;5.40;;;;;;;;;;5028132;28;20037;-63
2022/12/28 03:39:49;;;;;;;10.18;5.30;;;;;;;;;;5027079;28;20521;-63
2022/12/28 03:45:20;;;;;;;9.07;5.47;;;;;;;;;;5027683;28;20396;-64
2022/12/28 03:47:48;;;;;;;11.90;5.75;;;;;;;;;;5027153;28;20045;-63
2022/12/28 03:50:14;;;;;;;9.40;5.10;;;;;;;;;;5023844;28;20555;-63
2022/12/28 03:52:39;;;;;;;8.63;5.45;;;;;;;;;;5031390;28;20037;-64
2022/12/28 03:55:05;;;;;;;10.00;6.20;;;;;;;;;;5031383;28;20045;-65
2022/12/28 03:57:30;;;;;;;9.98;5.72;;;;;;;;;;5008670;28;20026;-64
2022/12/28 03:59:56;;;;;;;14.05;5.35;;;;;;;;;;5025801;28;20033;-65
2022/12/28 04:02:21;;;;;;;14.38;6.20;;;;;;;;;;5012583;28;20057;-65
2022/12/28 04:04:47;;;;;;;7.38;5.40;;;;;;;;;;5031093;28;20041;-65
2022/12/28 04:07:12;;;;;;;11.45;5.78;;;;;;;;;;5011711;28;20041;-64
2022/12/28 04:09:37;;;;;;;10.98;6.40;;;;;;;;;;5028921;28;20041;-64
2022/12/28 04:12:03;;;;;;;10.95;6.07;;;;;;;;;;5029184;28;20037;-65
2022/12/28 04:14:28;;;;;;;12.65;6.10;;;;;;;;;;5029316;28;20407;-65
2022/12/28 04:16:54;;;;;;;9.10;5.47;;;;;;;;;;5030321;28;20151;-66
2022/12/28 04:19:19;;;;;;;7.60;5.28;;;;;;;;;;5026964;28;20057;-64
2022/12/28 04:21:44;;;;;;;10.38;5.75;;;;;;;;;;5030492;28;20706;-63
2022/12/28 04:24:10;;;;;;;9.88;6.15;;;;;;;;;;5029462;28;20474;-64
2022/12/28 04:26:35;;;;;;;9.90;5.93;;;;;;;;;;5029112;28;20493;-63
2022/12/28 04:29:00;;;;;;;11.73;6.22;;;;;;;;;;5028591;28;20044;-63
2022/12/28 04:31:27;;;;;;;11.05;6.20;;;;;;;;;;5030219;28;20489;-63
2022/12/28 04:33:52;;;;;;;11.77;5.70;;;;;;;;;;5025926;28;20033;-64
2022/12/28 04:36:18;;;;;;;11.13;5.50;;;;;;;;;;5031009;28;20041;-63
2022/12/28 04:38:43;;;;;;;12.68;5.90;;;;;;;;;;5029185;28;20492;-64
2022/12/28 04:41:10;;;;;;;12.68;5.82;;;;;;;;;;5030413;28;20072;-64
2022/12/28 04:43:36;;;;;;;11.85;5.50;;;;;;;;;;5026355;28;20072;-64
2022/12/28 04:46:04;;;;;;;10.52;5.93;;;;;;;;;;5028780;28;20473;-64
2022/12/28 04:48:30;;;;;;;8.13;5.65;;;;;;;;;;5028459;28;20120;-63
2022/12/28 04:50:56;;;;;;;11.30;5.85;;;;;;;;;;5028688;28;20185;-63
2022/12/28 04:53:22;;;;;;;13.55;6.70;;;;;;;;;;5027438;28;20551;-64
2022/12/28 04:55:47;;;;;;;13.15;5.80;;;;;;;;;;5024671;28;20033;-62
2022/12/28 04:58:13;;;;;;;10.48;6.05;;;;;;;;;;5025654;28;20112;-66
2022/12/28 05:00:39;;;;;;;9.05;5.53;;;;;;;;;;5022517;28;20038;-64
2022/12/28 05:03:05;;;;;;;12.38;5.50;;;;;;;;;;5025446;28;20041;-64
2022/12/28 05:05:33;;;;;;;9.40;5.90;;;;;;;;;;5005701;28;20125;-64
2022/12/28 05:08:01;;;;;;;10.77;5.80;;;;;;;;;;5027425;28;20030;-64
2022/12/28 05:10:28;;;;;;;8.55;5.60;;;;;;;;;;5019405;28;20501;-63
2022/12/28 05:12:54;;;;;;;10.18;5.47;;;;;;;;;;5007111;28;20044;-64
2022/12/28 05:15:20;;;;;;;10.90;5.97;;;;;;;;;;5026614;28;20032;-63
2022/12/28 05:17:45;;;;;;;10.25;6.50;;;;;;;;;;5028936;28;20021;-64
2022/12/28 05:20:11;;;;;;;9.82;5.80;;;;;;;;;;5022578;28;20042;-62
2022/12/28 05:22:36;;;;;;;13.38;5.78;;;;;;;;;;5026256;28;20279;-65
2022/12/28 05:25:02;;;;;;;7.88;5.80;;;;;;;;;;5007819;28;20045;-65
2022/12/28 05:27:27;;;;;;;8.80;5.30;;;;;;;;;;5023449;28;20448;-65
2022/12/28 05:29:52;;;;;;;8.55;5.47;;;;;;;;;;5024302;28;20030;-64
2022/12/28 05:32:18;;;;;;;8.43;5.15;;;;;;;;;;5011195;28;20124;-63
2022/12/28 05:34:43;;;;;;;9.18;5.40;;;;;;;;;;5022710;28;20060;-63
2022/12/28 05:37:09;;;;;;;8.13;5.25;;;;;;;;;;5025907;28;20528;-63
2022/12/28 05:39:35;;;;;;;6.95;4.80;;;;;;;;;;5023977;28;20052;-64
2022/12/28 05:42:01;;;;;;;10.50;5.07;;;;;;;;;;5018629;28;20612;-63
2022/12/28 05:44:27;;;;;;;8.88;5.28;;;;;;;;;;5010468;28;20046;-65
2022/12/28 05:46:52;;;;;;;9.70;4.80;;;;;;;;;;5026729;28;20037;-65
2022/12/28 05:49:18;;;;;;;7.28;4.78;;;;;;;;;;5023628;28;20037;-69
2022/12/28 05:51:43;;;;;;;13.50;5.05;;;;;;;;;;5007897;28;20045;-69
2022/12/28 05:54:09;;;;;;;8.23;4.65;;;;;;;;;;5007205;28;20074;-69
2022/12/28 05:56:34;;;;;;;9.10;5.05;;;;;;;;;;5024607;28;20046;-69
2022/12/28 05:59:05;;;;;;;14.43;5.28;;;;;;;;;;5024069;28;20034;-69
2022/12/28 06:01:34;;;;;;;10.57;5.07;;;;;;;;;;5023019;28;20033;-69
2022/12/28 06:04:02;;;;;;;9.32;5.03;;;;;;;;;;5024658;28;20041;-69
2022/12/28 06:06:29;;;;;;;10.75;4.63;;;;;;;;;;5026191;28;20560;-68
2022/12/28 06:08:54;;;;;;;10.93;4.47;;;;;;;;;;5025293;28;20022;-64
2022/12/28 06:11:22;;;;;;;7.40;4.30;;;;;;;;;;5024543;28;20053;-69
2022/12/28 06:13:48;;;;;;;7.15;4.88;;;;;;;;;;5009437;28;20053;-70
2022/12/28 06:16:20;;;;;;;11.23;5.60;;;;;;;;;;5024999;28;20531;-70
2022/12/28 06:18:47;;;;;;;8.30;4.85;;;;;;;;;;5023660;28;20045;-70
2022/12/28 06:21:22;;;;;;;7.18;4.93;;;;;;;;;;5027150;28;20129;-69
2022/12/28 06:23:48;;;;;;;10.13;4.35;;;;;;;;;;5026695;28;20040;-69
2022/12/28 06:26:17;;;;;;;9.02;4.63;;;;;;;;;;5027241;28;20087;-68
2022/12/28 06:28:44;;;;;;;7.85;4.28;;;;;;;;;;4994920;28;20470;-69
2022/12/28 06:31:12;;;;;;;7.43;4.85;;;;;;;;;;5025591;28;20037;-73
2022/12/28 06:33:38;;;;;;;9.35;4.63;;;;;;;;;;5025645;28;20042;-70
2022/12/28 06:36:04;;;;;;;8.40;4.68;;;;;;;;;;5026313;28;20476;-70
2022/12/28 06:38:31;;;;;;;7.53;4.57;;;;;;;;;;5021457;28;20034;-70
2022/12/28 06:41:02;;;;;;;6.95;4.55;;;;;;;;;;5023311;28;20322;-66
2022/12/28 06:43:36;;;;;;;6.70;4.70;;;;;;;;;;5021813;28;20037;-70
2022/12/28 06:46:02;;;;;;;9.38;4.57;;;;;;;;;;5023772;28;20037;-69
2022/12/28 06:48:29;;;;;;;8.45;5.00;;;;;;;;;;5030780;28;20037;-69
2022/12/28 06:50:59;;;;;;;10.05;4.65;;;;;;;;;;5031098;28;20083;-70
2022/12/28 06:53:28;;;;;;;9.32;3.95;;;;;;;;;;5007271;28;20501;-69
2022/12/28 06:55:55;;;;;;;7.15;4.05;;;;;;;;;;5020848;28;20041;-69
2022/12/28 06:58:22;;;;;;;8.85;4.22;;;;;;;;;;5022473;28;20535;-71
2022/12/28 07:00:48;;;;;;;7.30;4.45;;;;;;;;;;5025194;28;20045;-68
2022/12/28 07:03:13;;;;;;;9.35;5.35;;;;;;;;;;5024738;28;20026;-68
2022/12/28 07:05:39;;;;;;;8.75;5.00;;;;;;;;;;5030415;28;20022;-69
2022/12/28 07:08:04;;;;;;;9.88;4.57;;;;;;;;;;5027795;28;20041;-68
2022/12/28 07:10:31;;;;;;;8.75;4.60;;;;;;;;;;5028251;28;20397;-65
2022/12/28 07:12:56;;;;;;;8.38;4.50;;;;;;;;;;5007816;28;20144;-66
2022/12/28 07:15:22;;;;;;;6.95;5.15;;;;;;;;;;5009665;28;20106;-68
2022/12/28 07:17:47;;;;;;;8.15;5.15;;;;;;;;;;5025916;28;20029;-69
2022/12/28 07:20:12;;;;;;;8.80;5.10;;;;;;;;;;5027536;28;20413;-68
2022/12/28 07:22:38;;;;;;;11.27;5.60;;;;;;;;;;5024300;28;20124;-64
2022/12/28 07:25:03;;;;;;;13.13;5.70;;;;;;;;;;5027867;28;20443;-68
2022/12/28 07:27:29;;;;;;;13.10;6.07;;;;;;;;;;5028028;28;20568;-70
2022/12/28 07:29:54;;;;;;;9.80;5.28;;;;;;;;;;5013128;28;20044;-67
2022/12/28 07:32:20;;;;;;;9.85;5.63;;;;;;;;;;5024990;28;20497;-68
2022/12/28 07:34:45;;;;;;;12.00;6.20;;;;;;;;;;5008787;28;20138;-69
2022/12/28 07:37:10;;;;;;;9.02;5.75;;;;;;;;;;5027193;28;20101;-69
2022/12/28 07:39:36;;;;;;;7.90;4.80;;;;;;;;;;5028100;28;20034;-70
2022/12/28 07:42:05;;;;;;;10.02;5.82;;;;;;;;;;5029484;28;20544;-67
2022/12/28 07:44:31;;;;;;;12.00;5.80;;;;;;;;;;5023951;28;20092;-68
2022/12/28 07:46:56;;;;;;;10.85;5.72;;;;;;;;;;5028965;28;20061;-68
2022/12/28 07:49:21;;;;;;;6.80;5.25;;;;;;;;;;5024901;28;20068;-69
2022/12/28 07:51:48;;;;;;;7.80;5.53;;;;;;;;;;5026892;28;20571;-71
2022/12/28 07:54:13;;;;;;;9.73;5.60;;;;;;;;;;5026720;28;20037;-70
2022/12/28 07:56:39;;;;;;;10.10;5.93;;;;;;;;;;5029283;28;20047;-68
2022/12/28 07:59:05;;;;;;;10.48;6.25;;;;;;;;;;5025353;28;20381;-70
2022/12/28 08:01:33;;;;;;;9.20;5.63;;;;;;;;;;5029629;28;20585;-69
2022/12/28 08:04:01;;;;;;;14.25;6.28;;;;;;;;;;5027495;28;20133;-69
2022/12/28 08:06:28;;;;;;;10.75;5.55;;;;;;;;;;5031218;28;20506;-69
2022/12/28 08:08:57;;;;;;;9.73;5.63;;;;;;;;;;5029526;28;20096;-67
2022/12/28 08:11:24;;;;;;;9.25;5.18;;;;;;;;;;5025850;28;20085;-68
2022/12/28 08:13:52;;;;;;;11.32;5.68;;;;;;;;;;5026169;28;20481;-69
2022/12/28 08:16:19;;;;;;;6.38;4.97;;;;;;;;;;5023678;28;20061;-70
2022/12/28 08:18:46;;;;;;;10.45;5.53;;;;;;;;;;5022497;28;20282;-69
2022/12/28 08:21:24;;;;;;;10.27;5.38;;;;;;;;;;5022966;28;20029;-66
2022/12/28 08:23:49;;;;;;;9.57;5.85;;;;;;;;;;5029396;28;20092;-69
2022/12/28 08:26:18;;;;;;;12.85;6.38;;;;;;;;;;5026844;28;20133;-70
2022/12/28 08:28:44;;;;;;;11.25;6.28;;;;;;;;;;5010475;28;20034;-71
2022/12/28 08:31:16;;;;;;;10.55;6.28;;;;;;;;;;5023681;28;20041;-71
2022/12/28 08:33:42;;;;;;;13.48;6.22;;;;;;;;;;5014378;28;20592;-70
2022/12/28 08:36:08;;;;;;;9.88;5.95;;;;;;;;;;5014256;28;20030;-71
2022/12/28 08:38:34;;;;;;;10.63;5.78;;;;;;;;;;5013624;28;20046;-69
2022/12/28 08:41:03;;;;;;;12.85;6.03;;;;;;;;;;5026855;28;20037;-70
2022/12/28 08:43:30;;;;;;;10.70;6.30;;;;;;;;;;5015489;28;20068;-70
2022/12/28 08:46:00;;;;;;;9.07;5.97;;;;;;;;;;5017408;28;20041;-69
2022/12/28 08:48:26;;;;;;;9.55;5.53;;;;;;;;;;5020469;28;20025;-69
2022/12/28 08:50:52;;;;;;;13.25;5.75;;;;;;;;;;5020266;28;20038;-70
2022/12/28 08:53:17;;;;;;;11.18;4.68;;;;;;;;;;5016228;28;20245;-69
2022/12/28 08:55:43;;;;;;;16.50;8.43;;;;;;;;;;4999616;28;20573;-70
2022/12/28 08:58:08;;;;;;;11.48;6.22;;;;;;;;;;5000069;28;20121;-71
2022/12/28 09:00:33;;;;;;;9.23;5.18;;;;;;;;;;5025916;28;20041;-69
2022/12/28 09:02:59;;;;;;;8.60;4.10;;;;;;;;;;5023095;28;20088;-67
2022/12/28 09:05:24;;;;;;;7.63;4.30;;;;;;;;;;5002531;28;20516;-70
2022/12/28 09:07:51;;;;;;;9.85;4.32;;;;;;;;;;5025702;28;20041;-69
2022/12/28 09:10:17;;;;;;;8.82;4.22;;;;;;;;;;5006189;28;20444;-70
2022/12/28 09:12:42;;;;;;;7.55;4.25;;;;;;;;;;5024945;28;20045;-68
2022/12/28 09:15:08;;;;;;;11.10;4.25;;;;;;;;;;5019973;28;20132;-70
2022/12/28 09:17:33;;;;;;;6.47;4.15;;;;;;;;;;5022743;28;20037;-68
2022/12/28 09:19:59;;;;;;;7.45;4.22;;;;;;;;;;5023796;28;20042;-68
2022/12/28 09:22:25;;;;;;;10.88;4.55;;;;;;;;;;5024978;28;20049;-70
2022/12/28 09:24:50;;;;;;;10.52;4.72;;;;;;;;;;5022188;28;20042;-69
2022/12/28 09:27:15;;;;;;;13.73;6.97;;;;;;;;;;5023606;28;20021;-68
2022/12/28 09:29:41;;;;;;;13.55;5.70;;;;;;;;;;5019521;28;20013;-69
2022/12/28 09:32:06;;;;;;;12.73;6.00;;;;;;;;;;5021008;28;20722;-67
2022/12/28 09:34:31;;;;;;;11.88;5.93;;;;;;;;;;5010560;28;20564;-66
2022/12/28 09:36:57;;;;;;;13.30;5.90;;;;;;;;;;5019490;28;20044;-66
2022/12/28 09:39:25;;;;;;;9.15;4.75;;;;;;;;;;5013263;28;20017;-64
2022/12/28 09:42:05;;;;;;;11.35;4.80;;;;;;;;;;5023669;28;20136;-68
2022/12/28 09:44:37;;;;;;;5.75;2.90;;;;;;;;;;5008081;28;20194;-69
2022/12/28 09:47:17;;;;;;;3.47;2.13;;;;;;;;;;5013966;28;20625;-65
2022/12/28 09:50:07;;;;;;;4.60;2.03;;;;;;;;;;5016293;28;20754;-68
2022/12/28 09:52:56;;;;;;;3.95;1.85;;;;;;;;;;5022730;28;20029;-66
2022/12/28 09:55:24;;;;;;;7.00;1.83;;;;;;;;;;5021106;28;20044;-68
2022/12/28 09:57:57;;;;;;;3.33;1.40;;;;;;;;;;5018076;28;20080;-69
2022/12/28 10:00:38;;;;;;;4.72;1.38;;;;;;;;;;5016315;28;20057;-68
2022/12/28 10:03:14;;;;;;;7.78;1.40;;;;;;;;;;5017728;28;20029;-66
2022/12/28 10:05:40;;;;;;;5.85;1.30;;;;;;;;;;4996086;28;20051;-69
2022/12/28 10:08:12;;;;;;;3.13;1.30;;;;;;;;;;5016519;28;20913;-68
2022/12/28 10:10:40;;;;;;;5.55;1.30;;;;;;;;;;5016095;28;20065;-65
2022/12/28 10:13:23;;;;;;;4.93;1.30;;;;;;;;;;5014481;28;20148;-67
2022/12/28 10:15:50;;;;;;;2.22;1.30;;;;;;;;;;4996896;28;20973;-69
2022/12/28 10:18:22;;;;;;;4.20;1.05;;;;;;;;;;5014857;28;20037;-65
2022/12/28 10:20:48;;;;;;;2.57;1.40;;;;;;;;;;5017775;28;20085;-68
2022/12/28 10:23:19;;;;;;;4.03;1.55;;;;;;;;;;5020062;28;20303;-68
2022/12/28 10:25:46;;;;;;;6.88;1.50;;;;;;;;;;5026639;28;20127;-68
2022/12/28 10:28:13;;;;;;;1.83;1.10;;;;;;;;;;5031072;28;20041;-68
2022/12/28 10:31:03;;;;;;;2.33;1.30;;;;;;;;;;5029550;28;20041;-71
2022/12/28 10:33:29;;;;;;;3.65;1.10;;;;;;;;;;5004429;28;20057;-71
2022/12/28 10:35:55;;;;;;;2.55;1.10;;;;;;;;;;5019856;28;20100;-70
2022/12/28 10:38:24;;;;;;;3.50;1.38;;;;;;;;;;5017862;28;20045;-69
2022/12/28 10:41:01;;;;;;;5.13;1.50;;;;;;;;;;5013984;28;20033;-73
2022/12/28 10:43:34;;;;;;;4.55;1.40;;;;;;;;;;5023987;28;20072;-71
2022/12/28 10:46:02;;;;;;;2.10;1.00;;;;;;;;;;5020549;28;20515;-70
2022/12/28 10:48:34;;;;;;;5.80;1.52;;;;;;;;;;5019313;28;20033;-71
2022/12/28 10:51:19;;;;;;;1.27;0.95;;;;;;;;;;5018549;28;20445;-70
2022/12/28 10:53:50;;;;;;;1.85;1.13;;;;;;;;;;5025412;28;20561;-70
2022/12/28 10:56:22;;;;;;;5.45;1.25;;;;;;;;;;5022433;28;20560;-70
2022/12/28 10:58:50;;;;;;;3.58;1.10;;;;;;;;;;5019811;28;20041;-70
2022/12/28 11:01:25;;;;;;;5.80;1.42;;;;;;;;;;5002448;28;20131;-68
2022/12/28 11:03:53;;;;;;;4.53;1.30;;;;;;;;;;4984019;28;21132;-69
2022/12/28 11:06:21;;;;;;;5.20;1.20;;;;;;;;;;5019808;28;20033;-68
2022/12/28 11:09:12;;;;;;;3.90;1.42;;;;;;;;;;5025637;28;20100;-69
2022/12/28 11:11:38;;;;;;;3.67;1.15;;;;;;;;;;5020965;28;20454;-67
2022/12/28 11:14:16;;;;;;;3.08;1.27;;;;;;;;;;5022468;28;20030;-69
2022/12/28 11:16:42;;;;;;;1.67;0.95;;;;;;;;;;5014758;28;20110;-69
2022/12/28 11:19:08;;;;;;;2.95;1.55;;;;;;;;;;5024628;28;20704;-69
2022/12/28 11:21:35;;;;;;;2.67;1.27;;;;;;;;;;5021876;28;20516;-70
2022/12/28 11:24:00;;;;;;;4.60;1.50;;;;;;;;;;5022610;28;20477;-69
2022/12/28 11:26:27;;;;;;;4.43;1.63;;;;;;;;;;5017114;28;20041;-70
2022/12/28 11:28:53;;;;;;;3.30;1.30;;;;;;;;;;5018860;28;20378;-70
2022/12/28 11:31:30;;;;;;;2.00;1.20;;;;;;;;;;5015325;28;20057;-72
2022/12/28 11:34:02;;;;;;;2.40;0.93;;;;;;;;;;5019068;28;20038;-65
2022/12/28 11:36:29;;;;;;;2.90;1.10;;;;;;;;;;5018935;28;20032;-70
2022/12/28 11:38:55;;;;;;;5.13;1.30;;;;;;;;;;5022101;28;20033;-69
2022/12/28 11:41:24;;;;;;;2.47;1.13;;;;;;;;;;5020040;28;21487;-70
2022/12/28 11:43:51;;;;;;;2.95;1.15;;;;;;;;;;5002823;28;20042;-70
2022/12/28 11:46:19;;;;;;;3.55;1.10;;;;;;;;;;5003723;28;20048;-70
2022/12/28 11:49:04;;;;;;;2.15;1.17;;;;;;;;;;5025004;28;20052;-70
2022/12/28 11:51:31;;;;;;;6.03;1.10;;;;;;;;;;5024103;28;20056;-68
2022/12/28 11:53:59;;;;;;;3.47;1.23;;;;;;;;;;5023850;28;20147;-70
2022/12/28 11:56:45;;;;;;;3.10;1.00;;;;;;;;;;5023251;28;20101;-71
2022/12/28 11:59:36;;;;;;;3.97;1.30;;;;;;;;;;5012294;28;20034;-66
2022/12/28 12:02:27;;;;;;;2.80;1.30;;;;;;;;;;5022072;28;20502;-69
2022/12/28 12:04:53;;;;;;;2.80;1.17;;;;;;;;;;5022932;28;20112;-67
2022/12/28 12:07:22;;;;;;;4.63;1.63;;;;;;;;;;5024369;28;20479;-70
2022/12/28 12:10:23;;;;;;;2.67;1.27;;;;;;;;;;5008350;28;20045;-71
2022/12/28 12:12:50;;;;;;;4.07;1.60;;;;;;;;;;4992171;28;20044;-70
2022/12/28 12:15:20;;;;;;;3.78;1.35;;;;;;;;;;5009372;28;20403;-69
2022/12/28 12:17:54;;;;;;;4.80;1.10;;;;;;;;;;5030922;28;20026;-71
2022/12/28 12:20:27;;;;;;;2.85;1.38;;;;;;;;;;5010931;28;20159;-70
2022/12/28 12:23:01;;;;;;;2.13;1.20;;;;;;;;;;5002450;28;20037;-70
2022/12/28 12:25:41;;;;;;;2.75;1.30;;;;;;;;;;5028190;28;20730;-70
2022/12/28 12:28:09;;;;;;;1.13;0.95;;;;;;;;;;5029443;28;20038;-70
2022/12/28 12:30:35;;;;;;;5.57;1.30;;;;;;;;;;5026172;28;20509;-71
2022/12/28 12:33:05;;;;;;;8.10;1.35;;;;;;;;;;5023200;28;20105;-66
2022/12/28 12:35:45;;;;;;;2.20;1.38;;;;;;;;;;5025575;28;20504;-66
2022/12/28 12:38:29;;;;;;;2.20;1.20;;;;;;;;;;5004947;28;20033;-66
2022/12/28 12:41:43;;;;;;;3.03;1.20;;;;;;;;;;5020974;28;20033;-70
2022/12/28 12:44:50;;;;;;;1.80;1.15;;;;;;;;;;4941215;28;20040;-70
2022/12/28 12:47:57;;;;;;;4.18;1.30;;;;;;;;;;4932888;28;20043;-71
2022/12/28 12:50:47;;;;;;;2.05;1.10;;;;;;;;;;5015757;28;20042;-69
2022/12/28 12:53:30;;;;;;;3.17;1.20;;;;;;;;;;5021288;28;20045;-67
2022/12/28 12:56:09;;;;;;;3.80;1.17;;;;;;;;;;5016790;28;20055;-70
2022/12/28 12:58:48;;;;;;;4.50;1.10;;;;;;;;;;5013404;28;20077;-68
2022/12/28 13:01:19;;;;;;;5.75;1.50;;;;;;;;;;5011478;28;20041;-69
2022/12/28 13:03:47;;;;;;;1.55;1.00;;;;;;;;;;5020601;28;20045;-69
2022/12/28 13:06:15;;;;;;;3.45;1.10;;;;;;;;;;5022566;28;20485;-69
2022/12/28 13:08:41;;;;;;;2.60;1.33;;;;;;;;;;5010023;28;20499;-65
2022/12/28 13:11:11;;;;;;;3.97;1.42;;;;;;;;;;5020203;28;20037;-65
2022/12/28 13:13:38;;;;;;;3.85;1.20;;;;;;;;;;5008487;28;20034;-63
2022/12/28 13:16:15;;;;;;;3.45;1.15;;;;;;;;;;5006221;28;20091;-63
2022/12/28 13:18:55;;;;;;;3.95;1.42;;;;;;;;;;5026623;28;20041;-69
2022/12/28 13:21:22;;;;;;;3.13;1.27;;;;;;;;;;5003537;28;20037;-61
2022/12/28 13:23:49;;;;;;;2.58;1.30;;;;;;;;;;5021865;28;20041;-65
2022/12/28 13:26:15;;;;;;;1.92;1.10;;;;;;;;;;5021929;28;20136;-69
2022/12/28 13:28:54;;;;;;;2.28;1.00;;;;;;;;;;5024239;28;20120;-64
2022/12/28 13:31:21;;;;;;;2.65;1.27;;;;;;;;;;5001631;28;20029;-66
2022/12/28 13:34:20;;;;;;;3.80;1.13;;;;;;;;;;5022990;28;20054;-66
2022/12/28 13:36:57;;;;;;;1.67;0.90;;;;;;;;;;5000338;28;20045;-70
2022/12/28 13:39:33;;;;;;;32.55;13.80;;;;;;;;;;5003702;28;20030;-62
2022/12/28 13:42:03;;;;;;;14.65;6.75;;;;;;;;;;5015820;28;20056;-62
2022/12/28 13:44:43;;;;;;;13.18;6.72;;;;;;;;;;5006835;28;20393;-65
2022/12/28 13:47:37;;;;;;;4.38;2.28;;;;;;;;;;5020885;28;20579;-66
2022/12/28 13:50:17;;;;;;;6.70;1.63;;;;;;;;;;4986698;28;20497;-70
2022/12/28 13:52:43;;;;;;;2.42;1.65;;;;;;;;;;5021891;28;20099;-67
2022/12/28 13:55:19;;;;;;;4.95;1.65;;;;;;;;;;5002988;28;20045;-68
2022/12/28 13:57:47;;;;;;;3.40;1.52;;;;;;;;;;5010668;28;20041;-70
2022/12/28 14:00:16;;;;;;;3.22;1.75;;;;;;;;;;5022636;28;21031;-69
2022/12/28 14:02:42;;;;;;;6.57;1.90;;;;;;;;;;5019724;28;20034;-69
2022/12/28 14:05:15;;;;;;;3.38;1.40;;;;;;;;;;5007001;28;20095;-68
2022/12/28 14:07:40;;;;;;;4.05;1.50;;;;;;;;;;5018241;28;20038;-69
2022/12/28 14:10:06;;;;;;;4.80;1.70;;;;;;;;;;5021945;28;20397;-69
2022/12/28 14:12:32;;;;;;;4.63;1.58;;;;;;;;;;5018903;28;20049;-70
2022/12/28 14:14:58;;;;;;;2.55;1.23;;;;;;;;;;5020847;28;20558;-71
2022/12/28 14:17:25;;;;;;;2.38;1.33;;;;;;;;;;5004696;28;20129;-71
2022/12/28 14:19:54;;;;;;;2.47;1.20;;;;;;;;;;5024136;28;20046;-69
2022/12/28 14:22:46;;;;;;;1.77;1.30;;;;;;;;;;5023447;28;20044;-65
2022/12/28 14:25:18;;;;;;;2.15;1.10;;;;;;;;;;5017942;28;20041;-70
2022/12/28 14:27:57;;;;;;;3.00;1.40;;;;;;;;;;5013001;28;20099;-68
2022/12/28 14:30:27;;;;;;;3.42;1.20;;;;;;;;;;5001206;28;20237;-69
2022/12/28 14:32:53;;;;;;;2.25;1.17;;;;;;;;;;5028469;28;20060;-69
2022/12/28 14:35:23;;;;;;;3.35;1.20;;;;;;;;;;5002620;28;20318;-68
2022/12/28 14:37:55;;;;;;;1.23;1.10;;;;;;;;;;5014593;28;20490;-69
2022/12/28 14:40:27;;;;;;;2.15;1.20;;;;;;;;;;5020845;28;21416;-66
2022/12/28 14:42:54;;;;;;;2.55;0.90;;;;;;;;;;5022531;28;20630;-67
2022/12/28 14:45:23;;;;;;;3.88;1.58;;;;;;;;;;5022180;28;20087;-70
2022/12/28 14:47:54;;;;;;;3.65;1.02;;;;;;;;;;5010776;28;20456;-70
2022/12/28 14:50:26;;;;;;;3.20;1.75;;;;;;;;;;5012305;28;20059;-71
2022/12/28 14:53:06;;;;;;;4.18;1.05;;;;;;;;;;5021165;28;20045;-69
2022/12/28 14:55:52;;;;;;;3.35;1.38;;;;;;;;;;5026568;28;20041;-71
2022/12/28 14:58:21;;;;;;;3.17;1.20;;;;;;;;;;5029122;28;20046;-69
2022/12/28 15:00:58;;;;;;;1.83;1.05;;;;;;;;;;5023169;28;20084;-67
2022/12/28 15:03:27;;;;;;;1.27;1.10;;;;;;;;;;5022153;28;20432;-68
2022/12/28 15:05:54;;;;;;;3.20;1.00;;;;;;;;;;5026515;28;20428;-70
2022/12/28 15:08:21;;;;;;;3.90;1.15;;;;;;;;;;5023551;28;20041;-69
2022/12/28 15:10:52;;;;;;;2.30;1.00;;;;;;;;;;5019743;28;20099;-68
2022/12/28 15:13:19;;;;;;;1.63;1.10;;;;;;;;;;5022655;28;20041;-67
2022/12/28 15:15:55;;;;;;;2.92;1.02;;;;;;;;;;5005793;28;20050;-70
2022/12/28 15:18:21;;;;;;;2.53;0.93;;;;;;;;;;5002580;28;20396;-66
2022/12/28 15:20:46;;;;;;;2.17;1.10;;;;;;;;;;5006561;28;20137;-69
2022/12/28 15:23:12;;;;;;;1.10;0.93;;;;;;;;;;5024245;28;20041;-69